Wetterdaten: Donnerstag, 23.10.2014
Datum Zeit Temperatur Luftfeuchte Luftdruck Regen Wind Richtung Richtung Taupunkt Windchill Windben
23.10.2014 00:00 0,8 C 97 % 1018,0 hPa 0,0 l/m 0,0 km/h (0 Bft) S-SO 157 0,4 C 22,8 C 0,0 km/h (0 Bft)
23.10.2014 00:10 0,8 C 97 % 1017,9 hPa 0,0 l/m 0,0 km/h (0 Bft) S-SO 157 0,4 C 22,8 C 0,0 km/h (0 Bft)
23.10.2014 00:20 0,7 C 97 % 1017,9 hPa 0,0 l/m 0,0 km/h (0 Bft) S-SO 157 0,3 C 22,8 C 0,0 km/h (0 Bft)
23.10.2014 00:30 0,8 C 97 % 1017,9 hPa 0,0 l/m 0,0 km/h (0 Bft) S-SO 157 0,4 C 22,8 C 0,0 km/h (0 Bft)
23.10.2014 00:40 0,9 C 97 % 1017,9 hPa 0,0 l/m 0,0 km/h (0 Bft) S-SO 157 0,5 C 22,8 C 0,0 km/h (0 Bft)
23.10.2014 00:50 0,8 C 97 % 1017,9 hPa 0,0 l/m 0,0 km/h (0 Bft) O-NO 67 0,4 C 22,8 C 0,0 km/h (0 Bft)
23.10.2014 00:51 0,7 C 97 % 1017,9 hPa 0,0 l/m 13,8 km/h (3 Bft) W-SW 247 0,3 C -11,2 C 21,6 km/h (4 Bft)
23.10.2014 00:58 0,7 C 97 % 1017,9 hPa 0,0 l/m 13,8 km/h (3 Bft) W-SW 247 0,3 C -11,2 C 21,6 km/h (4 Bft)
23.10.2014 01:00 0,7 C 97 % 1017,9 hPa 0,0 l/m 13,8 km/h (3 Bft) W-SW 247 0,3 C -11,2 C 21,6 km/h (4 Bft)
23.10.2014 01:05 0,7 C 97 % 1017,9 hPa 0,0 l/m 14,5 km/h (3 Bft) W-NW 292 0,3 C -11,8 C 24,6 km/h (4 Bft)
23.10.2014 01:10 0,7 C 97 % 1017,9 hPa 0,0 l/m 14,6 km/h (3 Bft) NW 315 0,3 C -11,9 C 17,1 km/h (3 Bft)
23.10.2014 01:15 0,8 C 97 % 1017,9 hPa 0,0 l/m 12,9 km/h (3 Bft) W 270 0,4 C -10,2 C 29,6 km/h (5 Bft)
23.10.2014 01:20 0,9 C 97 % 1017,9 hPa 0,0 l/m 13,8 km/h (3 Bft) W-SW 247 0,5 C -11,1 C 20,8 km/h (4 Bft)
23.10.2014 01:25 0,8 C 97 % 1017,9 hPa 0,0 l/m 14,2 km/h (3 Bft) W-NW 292 0,4 C -11,5 C 20,1 km/h (4 Bft)
23.10.2014 01:30 0,8 C 97 % 1017,9 hPa 0,0 l/m 13,0 km/h (3 Bft) W-SW 247 0,4 C -10,3 C 11,6 km/h (2 Bft)
23.10.2014 01:35 0,7 C 97 % 1017,9 hPa 0,0 l/m 12,6 km/h (3 Bft) W 270 0,3 C -9,9 C 21,9 km/h (4 Bft)
23.10.2014 01:40 0,7 C 97 % 1018,2 hPa 0,0 l/m 13,8 km/h (3 Bft) W 270 0,3 C -11,2 C 19,2 km/h (3 Bft)
23.10.2014 01:45 0,7 C 97 % 1018,2 hPa 0,0 l/m 13,4 km/h (3 Bft) W-SW 247 0,3 C -10,8 C 12,1 km/h (2 Bft)
23.10.2014 01:50 0,8 C 97 % 1018,2 hPa 0,0 l/m 12,4 km/h (3 Bft) W-SW 247 0,4 C -9,8 C 24,3 km/h (4 Bft)
23.10.2014 01:55 0,8 C 97 % 1018,2 hPa 0,0 l/m 12,7 km/h (3 Bft) W 270 0,4 C -9,9 C 13,7 km/h (3 Bft)
23.10.2014 02:00 0,7 C 97 % 1018,4 hPa 0,0 l/m 13,2 km/h (3 Bft) W-NW 292 0,3 C -10,4 C 15,8 km/h (3 Bft)
23.10.2014 02:05 0,8 C 97 % 1018,4 hPa 0,0 l/m 12,9 km/h (3 Bft) W-SW 247 0,4 C -10,2 C 15,4 km/h (3 Bft)
23.10.2014 02:10 0,8 C 97 % 1018,4 hPa 0,0 l/m 13,2 km/h (3 Bft) W-SW 247 0,4 C -10,4 C 28,0 km/h (4 Bft)
23.10.2014 02:15 0,8 C 97 % 1018,4 hPa 0,0 l/m 13,2 km/h (3 Bft) W-SW 247 0,4 C -10,4 C 28,0 km/h (4 Bft)
23.10.2014 02:20 0,8 C 97 % 1018,4 hPa 0,0 l/m 13,2 km/h (3 Bft) W-SW 247 0,4 C -10,4 C 28,0 km/h (4 Bft)
23.10.2014 02:25 0,7 C 97 % 1018,4 hPa 0,0 l/m 0,0 km/h (0 Bft) W-SW 247 0,3 C -3,9 C 0,0 km/h (0 Bft)
23.10.2014 02:30 0,7 C 97 % 1018,4 hPa 0,0 l/m 0,0 km/h (0 Bft) W-SW 247 0,3 C -3,9 C 0,0 km/h (0 Bft)
23.10.2014 02:35 0,7 C 97 % 1018,4 hPa 0,0 l/m 0,0 km/h (0 Bft) W-SW 247 0,3 C -3,9 C 0,0 km/h (0 Bft)
23.10.2014 02:40 0,7 C 97 % 1018,3 hPa 0,0 l/m 0,0 km/h (0 Bft) W-SW 247 0,3 C -3,9 C 0,0 km/h (0 Bft)
23.10.2014 02:45 0,7 C 97 % 1018,3 hPa 0,0 l/m 0,0 km/h (0 Bft) W-SW 247 0,3 C -3,9 C 0,0 km/h (0 Bft)
23.10.2014 02:50 0,7 C 97 % 1018,3 hPa 0,0 l/m 0,0 km/h (0 Bft) W-SW 247 0,3 C -3,9 C 0,0 km/h (0 Bft)
23.10.2014 02:55 0,7 C 97 % 1018,3 hPa 0,0 l/m 0,0 km/h (0 Bft) W-SW 247 0,3 C -3,9 C 0,0 km/h (0 Bft)
23.10.2014 03:00 0,7 C 97 % 1018,5 hPa 0,0 l/m 9,8 km/h (2 Bft) S-SW 202 0,3 C -6,9 C 23,5 km/h (4 Bft)
23.10.2014 03:05 0,7 C 97 % 1018,5 hPa 0,0 l/m 10,8 km/h (2 Bft) W-SW 247 0,3 C -8,0 C 0,0 km/h (0 Bft)
23.10.2014 03:10 0,7 C 97 % 1018,5 hPa 0,0 l/m 10,9 km/h (2 Bft) W 270 0,3 C -8,2 C 9,3 km/h (2 Bft)
23.10.2014 03:15 0,7 C 97 % 1018,5 hPa 0,0 l/m 10,1 km/h (2 Bft) W-SW 247 0,3 C -7,2 C 16,4 km/h (3 Bft)
23.10.2014 03:20 0,7 C 97 % 1018,6 hPa 0,0 l/m 13,2 km/h (3 Bft) SW 225 0,3 C -10,4 C 15,9 km/h (3 Bft)
23.10.2014 03:25 0,8 C 97 % 1018,6 hPa 0,0 l/m 13,2 km/h (3 Bft) SW 225 0,4 C -10,4 C 15,9 km/h (3 Bft)
23.10.2014 03:28 0,8 C 97 % 1018,6 hPa 0,0 l/m 13,2 km/h (3 Bft) SW 225 0,4 C -10,4 C 15,9 km/h (3 Bft)
23.10.2014 03:30 0,8 C 97 % 1018,6 hPa 0,0 l/m 13,2 km/h (3 Bft) SW 225 0,4 C -10,4 C 15,9 km/h (3 Bft)
23.10.2014 03:35 0,7 C 97 % 1018,6 hPa 0,0 l/m 0,0 km/h (0 Bft) SW 225 0,3 C -3,9 C 0,0 km/h (0 Bft)
23.10.2014 03:40 0,7 C 97 % 1018,8 hPa 0,0 l/m 0,0 km/h (0 Bft) SW 225 0,3 C -3,9 C 0,0 km/h (0 Bft)
23.10.2014 03:45 0,7 C 97 % 1018,8 hPa 0,0 l/m 0,0 km/h (0 Bft) SW 225 0,3 C -3,9 C 0,0 km/h (0 Bft)
23.10.2014 03:50 0,7 C 97 % 1018,8 hPa 0,0 l/m 0,0 km/h (0 Bft) SW 225 0,3 C -3,9 C 0,0 km/h (0 Bft)
23.10.2014 03:55 0,7 C 97 % 1018,8 hPa 0,0 l/m 0,0 km/h (0 Bft) SW 225 0,3 C -3,9 C 0,0 km/h (0 Bft)
23.10.2014 04:00 0,7 C 97 % 1019,0 hPa 0,0 l/m 0,0 km/h (0 Bft) SW 225 0,3 C -3,9 C 0,0 km/h (0 Bft)
23.10.2014 04:05 0,7 C 97 % 1019,0 hPa 0,0 l/m 0,0 km/h (0 Bft) SW 225 0,3 C -3,9 C 0,0 km/h (0 Bft)
23.10.2014 04:10 0,7 C 97 % 1019,0 hPa 0,0 l/m 0,0 km/h (0 Bft) SW 225 0,3 C -3,9 C 0,0 km/h (0 Bft)
23.10.2014 04:15 0,7 C 97 % 1019,0 hPa 0,0 l/m 0,0 km/h (0 Bft) SW 225 0,3 C -3,9 C 0,0 km/h (0 Bft)
23.10.2014 04:20 0,7 C 97 % 1019,2 hPa 0,0 l/m 0,0 km/h (0 Bft) SW 225 0,3 C -3,9 C 0,0 km/h (0 Bft)
23.10.2014 04:25 0,7 C 97 % 1019,2 hPa 0,0 l/m 0,0 km/h (0 Bft) SW 225 0,3 C -3,9 C 0,0 km/h (0 Bft)
23.10.2014 04:30 0,7 C 97 % 1019,2 hPa 0,0 l/m 0,0 km/h (0 Bft) SW 225 0,3 C -3,9 C 0,0 km/h (0 Bft)
23.10.2014 04:35 0,8 C 98 % 1019,2 hPa 0,0 l/m 0,0 km/h (0 Bft) SW 225 0,5 C -3,9 C 0,0 km/h (0 Bft)
23.10.2014 04:40 0,8 C 98 % 1019,4 hPa 0,0 l/m 0,0 km/h (0 Bft) SW 225 0,5 C -3,9 C 0,0 km/h (0 Bft)
23.10.2014 04:45 0,9 C 98 % 1019,4 hPa 0,0 l/m 0,0 km/h (0 Bft) SW 225 0,6 C -3,9 C 0,0 km/h (0 Bft)
23.10.2014 04:50 0,9 C 98 % 1019,4 hPa 0,0 l/m 0,0 km/h (0 Bft) SW 225 0,6 C -3,9 C 0,0 km/h (0 Bft)
23.10.2014 04:55 0,9 C 98 % 1019,4 hPa 0,0 l/m 0,0 km/h (0 Bft) SW 225 0,6 C -3,9 C 0,0 km/h (0 Bft)
23.10.2014 05:00 0,9 C 98 % 1019,5 hPa 0,0 l/m 0,0 km/h (0 Bft) SW 225 0,6 C -3,9 C 0,0 km/h (0 Bft)
23.10.2014 05:05 0,9 C 98 % 1019,5 hPa 0,0 l/m 0,0 km/h (0 Bft) SW 225 0,6 C -3,9 C 0,0 km/h (0 Bft)
23.10.2014 05:10 0,9 C 98 % 1019,5 hPa 0,0 l/m 0,0 km/h (0 Bft) SW 225 0,6 C -3,9 C 0,0 km/h (0 Bft)
23.10.2014 05:15 0,9 C 98 % 1019,5 hPa 0,0 l/m 12,1 km/h (2 Bft) W 270 0,6 C -9,1 C 17,1 km/h (3 Bft)
23.10.2014 05:20 0,9 C 98 % 1019,7 hPa 0,0 l/m 12,2 km/h (2 Bft) W-SW 247 0,6 C -9,2 C 20,1 km/h (4 Bft)
23.10.2014 05:25 0,9 C 98 % 1019,7 hPa 0,0 l/m 11,3 km/h (2 Bft) W 270 0,6 C -8,2 C 30,3 km/h (5 Bft)
23.10.2014 05:30 0,9 C 98 % 1019,7 hPa 0,0 l/m 11,6 km/h (2 Bft) W 270 0,6 C -8,6 C 16,1 km/h (3 Bft)
23.10.2014 05:35 0,8 C 98 % 1019,7 hPa 0,0 l/m 12,1 km/h (2 Bft) W-SW 247 0,5 C -9,2 C 14,0 km/h (3 Bft)
23.10.2014 05:40 0,9 C 98 % 1020,0 hPa 0,0 l/m 12,2 km/h (2 Bft) W 270 0,6 C -9,3 C 28,3 km/h (4 Bft)
23.10.2014 05:45 0,9 C 98 % 1020,0 hPa 0,0 l/m 12,1 km/h (2 Bft) SW 225 0,6 C -9,2 C 9,8 km/h (2 Bft)
23.10.2014 05:50 0,8 C 98 % 1020,0 hPa 0,0 l/m 11,9 km/h (2 Bft) NW 315 0,5 C -9,0 C 7,9 km/h (2 Bft)
23.10.2014 05:55 0,8 C 98 % 1020,0 hPa 0,0 l/m 10,8 km/h (2 Bft) SW 225 0,5 C -7,9 C 10,9 km/h (2 Bft)
23.10.2014 06:00 0,8 C 98 % 1020,3 hPa 0,0 l/m 10,5 km/h (2 Bft) W-NW 292 0,5 C -7,5 C 14,3 km/h (3 Bft)
23.10.2014 06:05 0,8 C 98 % 1020,3 hPa 0,0 l/m 10,1 km/h (2 Bft) W-NW 292 0,5 C -7,1 C 7,4 km/h (2 Bft)
23.10.2014 06:10 0,9 C 98 % 1020,3 hPa 0,0 l/m 11,6 km/h (2 Bft) W-SW 247 0,6 C -8,8 C 24,3 km/h (4 Bft)
23.10.2014 06:15 0,9 C 98 % 1020,3 hPa 0,0 l/m 12,2 km/h (2 Bft) W-NW 292 0,6 C -9,3 C 10,9 km/h (2 Bft)
23.10.2014 06:20 0,9 C 98 % 1020,7 hPa 0,0 l/m 12,2 km/h (2 Bft) W-SW 247 0,6 C -9,3 C 15,3 km/h (3 Bft)
23.10.2014 06:25 0,9 C 98 % 1020,7 hPa 0,0 l/m 11,7 km/h (2 Bft) W-NW 292 0,6 C -8,8 C 20,1 km/h (4 Bft)
23.10.2014 06:28 0,9 C 98 % 1020,7 hPa 0,0 l/m 10,8 km/h (2 Bft) W-NW 292 0,6 C -7,8 C 9,5 km/h (2 Bft)
23.10.2014 06:30 0,9 C 98 % 1020,7 hPa 0,0 l/m 10,8 km/h (2 Bft) W-NW 292 0,6 C -7,8 C 9,5 km/h (2 Bft)
23.10.2014 06:35 0,8 C 98 % 1020,7 hPa 0,0 l/m 11,4 km/h (2 Bft) W-SW 247 0,5 C -8,7 C 13,5 km/h (3 Bft)
23.10.2014 06:40 0,8 C 98 % 1020,7 hPa 0,0 l/m 11,1 km/h (2 Bft) SW 225 0,5 C -8,3 C 10,8 km/h (2 Bft)
23.10.2014 06:45 0,8 C 98 % 1020,7 hPa 0,0 l/m 12,1 km/h (2 Bft) W 270 0,5 C -9,3 C 19,8 km/h (3 Bft)
23.10.2014 06:50 0,8 C 98 % 1020,7 hPa 0,0 l/m 13,0 km/h (3 Bft) W-SW 247 0,5 C -10,3 C 16,9 km/h (3 Bft)
23.10.2014 06:55 0,9 C 98 % 1020,7 hPa 0,0 l/m 12,4 km/h (3 Bft) O 90 0,6 C -9,7 C 15,6 km/h (3 Bft)
23.10.2014 07:00 0,9 C 98 % 1020,6 hPa 0,0 l/m 12,7 km/h (3 Bft) W-SW 247 0,6 C -9,8 C 23,0 km/h (4 Bft)
23.10.2014 07:05 0,9 C 98 % 1020,6 hPa 0,0 l/m 13,8 km/h (3 Bft) NW 315 0,6 C -10,9 C 11,9 km/h (2 Bft)
23.10.2014 07:10 0,9 C 98 % 1020,6 hPa 0,0 l/m 13,2 km/h (3 Bft) SW 225 0,6 C -10,3 C 10,1 km/h (2 Bft)
23.10.2014 07:15 0,8 C 98 % 1020,6 hPa 0,0 l/m 12,1 km/h (2 Bft) W 270 0,5 C -9,2 C 14,2 km/h (3 Bft)
23.10.2014 07:20 0,9 C 98 % 1020,8 hPa 0,0 l/m 12,1 km/h (2 Bft) W 270 0,6 C -9,2 C 14,2 km/h (3 Bft)
23.10.2014 07:25 1,0 C 97 % 1020,8 hPa 0,0 l/m 13,2 km/h (3 Bft) W-SW 247 0,6 C -10,2 C 23,8 km/h (4 Bft)
23.10.2014 07:30 1,0 C 97 % 1020,8 hPa 0,0 l/m 13,7 km/h (3 Bft) W-SW 247 0,6 C -10,7 C 16,1 km/h (3 Bft)
23.10.2014 07:35 1,0 C 97 % 1020,8 hPa 0,0 l/m 13,5 km/h (3 Bft) W 270 0,6 C -10,5 C 12,7 km/h (3 Bft)
23.10.2014 07:40 1,0 C 97 % 1021,0 hPa 0,0 l/m 12,7 km/h (3 Bft) SW 225 0,6 C -9,7 C 10,5 km/h (2 Bft)
23.10.2014 07:45 1,0 C 97 % 1021,0 hPa 0,0 l/m 13,4 km/h (3 Bft) W 270 0,6 C -10,3 C 13,2 km/h (3 Bft)
23.10.2014 07:50 1,0 C 97 % 1021,0 hPa 0,0 l/m 13,7 km/h (3 Bft) W-SW 247 0,6 C -10,7 C 15,0 km/h (3 Bft)
23.10.2014 07:55 1,0 C 97 % 1021,0 hPa 0,0 l/m 13,8 km/h (3 Bft) W-SW 247 0,6 C -10,6 C 13,0 km/h (3 Bft)
23.10.2014 08:00 1,1 C 97 % 1021,2 hPa 0,0 l/m 15,3 km/h (3 Bft) W-SW 247 0,7 C -11,8 C 28,2 km/h (4 Bft)
23.10.2014 08:05 1,1 C 97 % 1021,2 hPa 0,0 l/m 14,2 km/h (3 Bft) W 270 0,7 C -10,8 C 15,8 km/h (3 Bft)
23.10.2014 08:10 1,1 C 97 % 1021,2 hPa 0,0 l/m 14,6 km/h (3 Bft) W 270 0,7 C -11,1 C 13,0 km/h (3 Bft)
23.10.2014 08:15 1,1 C 97 % 1021,2 hPa 0,0 l/m 15,0 km/h (3 Bft) W-SW 247 0,7 C -11,5 C 32,5 km/h (5 Bft)
23.10.2014 08:20 1,2 C 97 % 1021,3 hPa 0,0 l/m 15,0 km/h (3 Bft) W-SW 247 0,8 C -11,2 C 30,6 km/h (5 Bft)
23.10.2014 08:25 1,2 C 97 % 1021,3 hPa 0,0 l/m 13,8 km/h (3 Bft) W 270 0,8 C -10,2 C 21,9 km/h (4 Bft)
23.10.2014 08:30 1,2 C 97 % 1021,3 hPa 0,0 l/m 14,5 km/h (3 Bft) W 270 0,8 C -10,8 C 17,1 km/h (3 Bft)
23.10.2014 08:35 1,2 C 97 % 1021,3 hPa 0,0 l/m 16,6 km/h (3 Bft) W 270 0,8 C -12,5 C 33,0 km/h (5 Bft)
23.10.2014 08:40 1,2 C 97 % 1021,5 hPa 0,0 l/m 16,9 km/h (3 Bft) SW 225 0,8 C -12,8 C 9,0 km/h (2 Bft)
23.10.2014 08:45 1,3 C 97 % 1021,5 hPa 0,0 l/m 15,6 km/h (3 Bft) SW 225 0,9 C -11,5 C 14,3 km/h (3 Bft)
23.10.2014 08:50 1,3 C 97 % 1021,5 hPa 0,0 l/m 15,3 km/h (3 Bft) W 270 0,9 C -11,3 C 15,6 km/h (3 Bft)
23.10.2014 08:55 1,4 C 98 % 1021,5 hPa 0,0 l/m 14,8 km/h (3 Bft) W 270 1,1 C -10,5 C 10,8 km/h (2 Bft)
23.10.2014 09:00 1,5 C 97 % 1021,7 hPa 0,0 l/m 15,1 km/h (3 Bft) W-SW 247 1,1 C -10,8 C 7,9 km/h (2 Bft)
23.10.2014 09:05 1,4 C 98 % 1021,7 hPa 0,0 l/m 15,1 km/h (3 Bft) W-NW 292 1,1 C -10,8 C 34,6 km/h (5 Bft)
23.10.2014 09:10 1,5 C 97 % 1021,7 hPa 0,0 l/m 13,8 km/h (3 Bft) W 270 1,1 C -9,7 C 16,7 km/h (3 Bft)
23.10.2014 09:15 1,5 C 97 % 1021,7 hPa 0,0 l/m 14,5 km/h (3 Bft) W-NW 292 1,1 C -10,0 C 20,1 km/h (4 Bft)
23.10.2014 09:20 1,6 C 97 % 1021,9 hPa 0,0 l/m 13,7 km/h (3 Bft) W-SW 247 1,2 C -9,4 C 8,0 km/h (2 Bft)
23.10.2014 09:23 1,6 C 97 % 1021,9 hPa 0,0 l/m 12,9 km/h (3 Bft) W 270 1,2 C -8,4 C 23,2 km/h (4 Bft)
23.10.2014 09:25 1,6 C 97 % 1021,9 hPa 0,0 l/m 12,9 km/h (3 Bft) W 270 1,2 C -8,4 C 23,2 km/h (4 Bft)
23.10.2014 09:30 1,6 C 97 % 1021,9 hPa 0,0 l/m 13,4 km/h (3 Bft) W 270 1,2 C -9,0 C 17,4 km/h (3 Bft)
23.10.2014 09:35 1,7 C 98 % 1021,9 hPa 0,0 l/m 14,0 km/h (3 Bft) NW 315 1,4 C -9,5 C 24,3 km/h (4 Bft)
23.10.2014 09:40 1,7 C 98 % 1022,1 hPa 0,0 l/m 14,0 km/h (3 Bft) NW 315 1,4 C -9,5 C 21,6 km/h (4 Bft)
23.10.2014 09:45 1,7 C 98 % 1022,1 hPa 0,0 l/m 11,7 km/h (2 Bft) W 270 1,4 C -7,2 C 15,4 km/h (3 Bft)
23.10.2014 09:50 1,7 C 97 % 1022,1 hPa 0,0 l/m 10,5 km/h (2 Bft) NW 315 1,3 C -5,9 C 8,9 km/h (2 Bft)
23.10.2014 09:55 1,7 C 97 % 1022,1 hPa 0,0 l/m 10,5 km/h (2 Bft) W-SW 247 1,3 C -5,9 C 13,5 km/h (3 Bft)
23.10.2014 10:00 1,7 C 97 % 1022,5 hPa 0,0 l/m 12,1 km/h (2 Bft) W 270 1,3 C -7,5 C 16,6 km/h (3 Bft)
23.10.2014 10:05 1,8 C 97 % 1022,5 hPa 0,0 l/m 12,1 km/h (2 Bft) W 270 1,4 C -7,5 C 16,6 km/h (3 Bft)
23.10.2014 10:10 1,8 C 98 % 1022,5 hPa 0,0 l/m 12,1 km/h (2 Bft) W 270 1,5 C -7,5 C 16,6 km/h (3 Bft)
23.10.2014 10:15 1,8 C 97 % 1022,5 hPa 0,0 l/m 0,0 km/h (0 Bft) W 270 1,4 C -2,1 C 0,0 km/h (0 Bft)
23.10.2014 10:20 1,9 C 97 % 1022,6 hPa 0,0 l/m 0,0 km/h (0 Bft) W 270 1,5 C -2,1 C 0,0 km/h (0 Bft)
23.10.2014 10:25 1,9 C 97 % 1022,6 hPa 0,0 l/m 0,0 km/h (0 Bft) W 270 1,5 C -2,1 C 0,0 km/h (0 Bft)
23.10.2014 10:30 1,9 C 97 % 1022,6 hPa 0,0 l/m 0,0 km/h (0 Bft) W 270 1,5 C -2,1 C 0,0 km/h (0 Bft)
23.10.2014 10:35 1,9 C 97 % 1022,6 hPa 0,0 l/m 0,0 km/h (0 Bft) W 270 1,5 C -2,1 C 0,0 km/h (0 Bft)
23.10.2014 10:40 1,9 C 97 % 1022,8 hPa 0,0 l/m 0,0 km/h (0 Bft) W 270 1,5 C -2,1 C 0,0 km/h (0 Bft)
23.10.2014 10:45 1,9 C 97 % 1022,8 hPa 0,0 l/m 0,0 km/h (0 Bft) W 270 1,5 C -2,1 C 0,0 km/h (0 Bft)
23.10.2014 10:50 1,9 C 97 % 1022,8 hPa 0,0 l/m 0,0 km/h (0 Bft) W 270 1,5 C -2,1 C 0,0 km/h (0 Bft)
23.10.2014 10:55 1,9 C 97 % 1022,8 hPa 0,0 l/m 0,0 km/h (0 Bft) W 270 1,5 C -2,1 C 0,0 km/h (0 Bft)
23.10.2014 11:00 1,9 C 97 % 1023,0 hPa 0,0 l/m 0,0 km/h (0 Bft) W 270 1,5 C -2,1 C 0,0 km/h (0 Bft)
23.10.2014 11:05 2,0 C 97 % 1023,0 hPa 0,0 l/m 0,0 km/h (0 Bft) W 270 1,6 C -2,1 C 0,0 km/h (0 Bft)
23.10.2014 11:10 2,0 C 97 % 1023,0 hPa 0,0 l/m 0,0 km/h (0 Bft) W 270 1,6 C -2,1 C 0,0 km/h (0 Bft)
23.10.2014 11:15 2,0 C 97 % 1023,0 hPa 0,0 l/m 0,0 km/h (0 Bft) W 270 1,6 C -2,1 C 0,0 km/h (0 Bft)
23.10.2014 11:20 2,0 C 97 % 1023,0 hPa 0,0 l/m 0,0 km/h (0 Bft) W 270 1,6 C -2,1 C 0,0 km/h (0 Bft)
23.10.2014 11:25 2,0 C 97 % 1023,0 hPa 0,0 l/m 0,0 km/h (0 Bft) W 270 1,6 C -2,1 C 0,0 km/h (0 Bft)
23.10.2014 11:30 2,1 C 97 % 1023,0 hPa 0,0 l/m 0,0 km/h (0 Bft) W 270 1,7 C -2,1 C 0,0 km/h (0 Bft)
23.10.2014 11:35 2,1 C 97 % 1023,0 hPa 0,0 l/m 0,0 km/h (0 Bft) W 270 1,7 C -2,1 C 0,0 km/h (0 Bft)
23.10.2014 11:40 2,0 C 97 % 1023,3 hPa 0,0 l/m 0,0 km/h (0 Bft) W 270 1,6 C -2,1 C 0,0 km/h (0 Bft)
23.10.2014 11:45 2,0 C 97 % 1023,3 hPa 0,0 l/m 0,0 km/h (0 Bft) W 270 1,6 C -2,1 C 0,0 km/h (0 Bft)
23.10.2014 11:50 1,9 C 97 % 1023,3 hPa 0,0 l/m 0,0 km/h (0 Bft) W 270 1,5 C -2,1 C 0,0 km/h (0 Bft)
23.10.2014 11:55 1,9 C 97 % 1023,3 hPa 0,0 l/m 10,8 km/h (2 Bft) W 270 1,5 C -5,7 C 14,6 km/h (3 Bft)
23.10.2014 12:00 1,9 C 97 % 1023,3 hPa 0,0 l/m 10,6 km/h (2 Bft) W-SW 247 1,5 C -5,4 C 20,1 km/h (4 Bft)
23.10.2014 12:05 1,9 C 97 % 1023,3 hPa 0,0 l/m 11,3 km/h (2 Bft) W 270 1,5 C -6,3 C 17,2 km/h (3 Bft)
23.10.2014 12:10 1,9 C 97 % 1023,3 hPa 0,0 l/m 11,6 km/h (2 Bft) W-SW 247 1,5 C -6,5 C 10,9 km/h (2 Bft)
23.10.2014 12:15 1,8 C 97 % 1023,3 hPa 0,0 l/m 12,4 km/h (3 Bft) W 270 1,4 C -7,5 C 17,2 km/h (3 Bft)
23.10.2014 12:20 1,9 C 97 % 1023,3 hPa 0,0 l/m 12,1 km/h (2 Bft) NW 315 1,5 C -7,3 C 11,3 km/h (2 Bft)
23.10.2014 12:23 1,9 C 97 % 1023,3 hPa 0,0 l/m 10,9 km/h (2 Bft) W 270 1,5 C -6,0 C 20,6 km/h (4 Bft)
23.10.2014 12:25 1,9 C 97 % 1023,3 hPa 0,0 l/m 10,9 km/h (2 Bft) W 270 1,5 C -6,0 C 20,6 km/h (4 Bft)
23.10.2014 12:30 1,9 C 97 % 1023,3 hPa 0,0 l/m 11,1 km/h (2 Bft) W-SW 247 1,5 C -6,3 C 15,0 km/h (3 Bft)
23.10.2014 12:35 1,9 C 97 % 1023,3 hPa 0,0 l/m 11,9 km/h (2 Bft) W-SW 247 1,5 C -6,9 C 15,3 km/h (3 Bft)
23.10.2014 12:40 1,9 C 97 % 1023,6 hPa 0,0 l/m 10,9 km/h (2 Bft) W-SW 247 1,5 C -5,9 C 8,0 km/h (2 Bft)
23.10.2014 12:45 1,9 C 97 % 1023,6 hPa 0,0 l/m 10,5 km/h (2 Bft) W-SW 247 1,5 C -5,4 C 11,3 km/h (2 Bft)
23.10.2014 12:50 2,0 C 97 % 1023,6 hPa 0,0 l/m 11,1 km/h (2 Bft) W 270 1,6 C -6,0 C 11,3 km/h (2 Bft)
23.10.2014 12:55 1,9 C 97 % 1023,6 hPa 0,0 l/m 10,0 km/h (2 Bft) W-SW 247 1,5 C -4,8 C 10,6 km/h (2 Bft)
23.10.2014 13:00 1,9 C 97 % 1023,6 hPa 0,0 l/m 10,1 km/h (2 Bft) SW 225 1,5 C -5,0 C 13,2 km/h (3 Bft)
23.10.2014 13:05 1,9 C 97 % 1023,6 hPa 0,0 l/m 9,2 km/h (2 Bft) SW 225 1,5 C -4,0 C 8,5 km/h (2 Bft)
23.10.2014 13:10 1,8 C 97 % 1023,6 hPa 0,0 l/m 7,1 km/h (2 Bft) O-NO 67 1,4 C -1,3 C 6,4 km/h (2 Bft)
23.10.2014 13:15 1,8 C 97 % 1023,6 hPa 0,0 l/m 6,9 km/h (2 Bft) W-SW 247 1,4 C -1,0 C 16,3 km/h (3 Bft)
23.10.2014 13:20 1,8 C 97 % 1023,8 hPa 0,0 l/m 7,4 km/h (2 Bft) SW 225 1,4 C -1,9 C 10,6 km/h (2 Bft)
23.10.2014 13:25 1,8 C 97 % 1023,8 hPa 0,0 l/m 7,7 km/h (2 Bft) N 360 1,4 C -2,3 C 12,2 km/h (2 Bft)
23.10.2014 13:30 1,8 C 97 % 1023,8 hPa 0,0 l/m 7,9 km/h (2 Bft) SW 225 1,4 C -2,6 C 9,5 km/h (2 Bft)
23.10.2014 13:35 1,8 C 97 % 1023,8 hPa 0,0 l/m 8,7 km/h (2 Bft) W-SW 247 1,4 C -3,6 C 16,7 km/h (3 Bft)
23.10.2014 13:40 1,8 C 97 % 1023,8 hPa 0,0 l/m 8,4 km/h (2 Bft) W-SW 247 1,4 C -3,2 C 19,8 km/h (3 Bft)
23.10.2014 13:45 0,0 C 0 % 1023,8 hPa 0,0 l/m 8,7 km/h (2 Bft) W 270 -60,0 C -3,3 C 14,0 km/h (3 Bft)
23.10.2014 13:46 0,0 C 0 % 1023,8 hPa 0,0 l/m 8,7 km/h (2 Bft) S 180 -60,0 C -3,3 C 5,1 km/h (1 Bft)
23.10.2014 13:57 0,0 C 0 % 1023,8 hPa 0,0 l/m 8,7 km/h (2 Bft) W-SW 247 -60,0 C -3,3 C 5,1 km/h (1 Bft)
23.10.2014 14:00 0,0 C 0 % 1023,8 hPa 0,0 l/m 8,7 km/h (2 Bft) W-SW 247 -60,0 C -3,3 C 5,1 km/h (1 Bft)
23.10.2014 14:05 2,1 C 97 % 1023,7 hPa 0,0 l/m 8,0 km/h (2 Bft) W-SW 247 1,7 C -2,4 C 5,1 km/h (1 Bft)
23.10.2014 14:09 2,2 C 97 % 1023,8 hPa 0,0 l/m 6,9 km/h (2 Bft) W-SW 247 1,8 C -0,7 C 8,4 km/h (2 Bft)
23.10.2014 14:14 2,1 C 97 % 1023,8 hPa 0,0 l/m 7,2 km/h (2 Bft) W-SW 247 1,7 C -1,0 C 12,1 km/h (2 Bft)
23.10.2014 14:22 2,1 C 97 % 1023,8 hPa 0,0 l/m 7,2 km/h (2 Bft) W-SW 247 1,7 C -1,0 C 12,1 km/h (2 Bft)
23.10.2014 14:25 2,1 C 97 % 1023,8 hPa 0,0 l/m 7,2 km/h (2 Bft) W-SW 247 1,7 C -1,0 C 12,1 km/h (2 Bft)
23.10.2014 14:30 2,1 C 97 % 1023,8 hPa 0,0 l/m 8,4 km/h (2 Bft) W-NW 292 1,7 C -2,7 C 6,3 km/h (2 Bft)
23.10.2014 14:35 2,1 C 97 % 1023,8 hPa 0,0 l/m 8,0 km/h (2 Bft) W 270 1,7 C -2,3 C 5,1 km/h (1 Bft)
23.10.2014 14:40 2,1 C 97 % 1023,8 hPa 0,0 l/m 7,4 km/h (2 Bft) W-SW 247 1,7 C -1,6 C 6,0 km/h (2 Bft)
23.10.2014 14:45 2,1 C 97 % 1023,8 hPa 0,0 l/m 7,4 km/h (2 Bft) W-SW 247 1,7 C -1,4 C 8,4 km/h (2 Bft)
23.10.2014 14:50 2,2 C 97 % 1023,8 hPa 0,0 l/m 7,6 km/h (2 Bft) SW 225 1,8 C -1,7 C 3,7 km/h (1 Bft)
23.10.2014 14:55 2,2 C 97 % 1023,8 hPa 0,0 l/m 7,7 km/h (2 Bft) SW 225 1,8 C -1,8 C 7,2 km/h (2 Bft)
23.10.2014 15:00 2,2 C 97 % 1023,9 hPa 0,0 l/m 6,8 km/h (2 Bft) W-SW 247 1,8 C -0,4 C 10,8 km/h (2 Bft)
23.10.2014 15:05 2,3 C 97 % 1023,9 hPa 0,0 l/m 5,8 km/h (2 Bft) W-SW 247 1,9 C 0,4 C 7,7 km/h (2 Bft)
23.10.2014 15:10 2,3 C 97 % 1023,9 hPa 0,0 l/m 5,1 km/h (1 Bft) W-SW 247 1,9 C 0,7 C 6,6 km/h (2 Bft)
23.10.2014 15:15 2,3 C 97 % 1023,9 hPa 0,0 l/m 5,3 km/h (1 Bft) W 270 1,9 C 0,7 C 11,1 km/h (2 Bft)
23.10.2014 15:20 2,3 C 97 % 1024,2 hPa 0,0 l/m 6,3 km/h (2 Bft) W 270 1,9 C 0,3 C 6,8 km/h (2 Bft)
23.10.2014 15:25 2,3 C 97 % 1024,2 hPa 0,0 l/m 5,8 km/h (2 Bft) S 180 1,9 C 0,4 C 3,9 km/h (1 Bft)
23.10.2014 15:30 2,3 C 97 % 1024,2 hPa 0,0 l/m 5,1 km/h (1 Bft) O-SO 112 1,9 C 0,9 C 8,0 km/h (2 Bft)
23.10.2014 15:35 2,3 C 97 % 1024,2 hPa 0,0 l/m 3,9 km/h (1 Bft) S-SW 202 1,9 C 1,5 C 2,1 km/h (1 Bft)
23.10.2014 15:40 2,3 C 97 % 1024,3 hPa 0,0 l/m 3,4 km/h (1 Bft) W 270 1,9 C 1,8 C 3,4 km/h (1 Bft)
23.10.2014 15:45 2,4 C 97 % 1024,3 hPa 0,0 l/m 3,7 km/h (1 Bft) W-SW 247 2,0 C 1,6 C 5,0 km/h (1 Bft)
23.10.2014 15:50 2,4 C 97 % 1024,3 hPa 0,0 l/m 4,2 km/h (1 Bft) W-NW 292 2,0 C 1,3 C 5,3 km/h (1 Bft)
23.10.2014 15:55 2,4 C 97 % 1024,3 hPa 0,0 l/m 3,4 km/h (1 Bft) W-SW 247 2,0 C 1,8 C 6,0 km/h (2 Bft)
23.10.2014 16:00 2,4 C 97 % 1024,6 hPa 0,0 l/m 3,2 km/h (1 Bft) W-SW 247 2,0 C 1,9 C 4,8 km/h (1 Bft)
23.10.2014 16:05 2,5 C 97 % 1024,6 hPa 0,0 l/m 3,1 km/h (1 Bft) W 270 2,1 C 2,0 C 5,5 km/h (1 Bft)
23.10.2014 16:10 2,5 C 97 % 1024,6 hPa 0,0 l/m 3,5 km/h (1 Bft) W-SW 247 2,1 C 1,8 C 6,4 km/h (2 Bft)
23.10.2014 16:15 2,5 C 97 % 1024,6 hPa 0,0 l/m 3,1 km/h (1 Bft) S-SO 157 2,1 C 2,1 C 3,5 km/h (1 Bft)
23.10.2014 16:20 2,5 C 97 % 1024,4 hPa 0,0 l/m 2,9 km/h (1 Bft) SW 225 2,1 C 2,2 C 5,6 km/h (1 Bft)
23.10.2014 16:25 2,5 C 97 % 1024,4 hPa 0,0 l/m 2,7 km/h (1 Bft) W-SW 247 2,1 C 2,4 C 2,1 km/h (1 Bft)
23.10.2014 16:30 2,5 C 97 % 1024,4 hPa 0,0 l/m 2,7 km/h (1 Bft) NW 315 2,1 C 2,4 C 2,9 km/h (1 Bft)
23.10.2014 16:35 2,5 C 97 % 1024,4 hPa 0,0 l/m 3,2 km/h (1 Bft) W-SW 247 2,1 C 2,1 C 6,8 km/h (2 Bft)
23.10.2014 16:40 2,5 C 97 % 1024,6 hPa 0,0 l/m 3,2 km/h (1 Bft) S 180 2,1 C 2,1 C 4,8 km/h (1 Bft)
23.10.2014 16:45 2,5 C 97 % 1024,6 hPa 0,0 l/m 3,4 km/h (1 Bft) S 180 2,1 C 1,9 C 3,5 km/h (1 Bft)
23.10.2014 16:50 2,5 C 97 % 1024,6 hPa 0,0 l/m 3,2 km/h (1 Bft) W 270 2,1 C 2,1 C 1,8 km/h (1 Bft)
23.10.2014 16:55 2,6 C 97 % 1024,6 hPa 0,0 l/m 3,7 km/h (1 Bft) W-NW 292 2,2 C 1,8 C 5,6 km/h (1 Bft)
23.10.2014 17:00 2,6 C 97 % 1024,4 hPa 0,0 l/m 4,0 km/h (1 Bft) W-NW 292 2,2 C 1,7 C 4,5 km/h (1 Bft)
23.10.2014 17:05 2,6 C 97 % 1024,4 hPa 0,0 l/m 3,9 km/h (1 Bft) W-SW 247 2,2 C 1,8 C 5,0 km/h (1 Bft)
23.10.2014 17:10 2,6 C 97 % 1024,4 hPa 0,0 l/m 3,5 km/h (1 Bft) S 180 2,2 C 1,9 C 2,7 km/h (1 Bft)
23.10.2014 17:15 2,6 C 97 % 1024,4 hPa 0,0 l/m 3,4 km/h (1 Bft) W-SW 247 2,2 C 2,1 C 4,8 km/h (1 Bft)
23.10.2014 17:20 2,6 C 97 % 1024,9 hPa 0,0 l/m 3,1 km/h (1 Bft) S-SO 157 2,2 C 2,2 C 3,4 km/h (1 Bft)
23.10.2014 17:23 2,6 C 97 % 1024,9 hPa 0,0 l/m 2,6 km/h (1 Bft) S-SW 202 2,2 C 2,5 C 2,7 km/h (1 Bft)
23.10.2014 17:25 2,6 C 97 % 1024,9 hPa 0,0 l/m 2,6 km/h (1 Bft) S-SW 202 2,2 C 2,5 C 2,7 km/h (1 Bft)
23.10.2014 17:30 2,6 C 97 % 1024,9 hPa 0,0 l/m 2,6 km/h (1 Bft) W-SW 247 2,2 C 2,4 C 4,3 km/h (1 Bft)
23.10.2014 17:35 2,5 C 97 % 1024,9 hPa 0,0 l/m 2,6 km/h (1 Bft) S 180 2,1 C 2,4 C 4,5 km/h (1 Bft)
23.10.2014 17:40 2,5 C 97 % 1024,6 hPa 0,0 l/m 1,8 km/h (1 Bft) SW 225 2,1 C 2,4 C 2,1 km/h (1 Bft)
23.10.2014 17:45 2,5 C 97 % 1024,6 hPa 0,0 l/m 1,0 km/h (0 Bft) SW 225 2,1 C 2,3 C 3,1 km/h (1 Bft)
23.10.2014 17:50 2,4 C 97 % 1024,6 hPa 0,0 l/m 1,0 km/h (0 Bft) W 270 2,0 C 2,3 C 2,3 km/h (1 Bft)
23.10.2014 17:55 2,4 C 97 % 1024,6 hPa 0,0 l/m 1,1 km/h (1 Bft) S 180 2,0 C 2,2 C 4,2 km/h (1 Bft)
23.10.2014 18:00 2,4 C 97 % 1024,6 hPa 0,0 l/m 1,4 km/h (1 Bft) W-SW 247 2,0 C 2,2 C 0,0 km/h (0 Bft)
23.10.2014 18:05 2,4 C 97 % 1024,6 hPa 0,0 l/m 1,4 km/h (1 Bft) W 270 2,0 C 2,2 C 0,0 km/h (0 Bft)
23.10.2014 18:10 2,4 C 97 % 1024,6 hPa 0,0 l/m 1,0 km/h (0 Bft) S 180 2,0 C 2,2 C 1,8 km/h (1 Bft)
23.10.2014 18:15 2,4 C 97 % 1024,6 hPa 0,0 l/m 0,8 km/h (0 Bft) SW 225 2,0 C 2,1 C 3,7 km/h (1 Bft)
23.10.2014 18:20 2,3 C 97 % 1024,6 hPa 0,0 l/m 1,3 km/h (1 Bft) S 180 1,9 C 2,1 C 2,1 km/h (1 Bft)
23.10.2014 18:25 2,4 C 97 % 1024,6 hPa 0,0 l/m 1,8 km/h (1 Bft) S 180 2,0 C 2,1 C 1,9 km/h (1 Bft)
23.10.2014 18:30 2,4 C 97 % 1024,6 hPa 0,0 l/m 1,8 km/h (1 Bft) W-SW 247 2,0 C 2,1 C 1,9 km/h (1 Bft)
23.10.2014 18:35 2,3 C 97 % 1024,6 hPa 0,0 l/m 2,3 km/h (1 Bft) W 270 1,9 C 2,1 C 3,1 km/h (1 Bft)
23.10.2014 18:40 2,3 C 97 % 1024,7 hPa 0,0 l/m 2,3 km/h (1 Bft) W 270 1,9 C 2,1 C 3,1 km/h (1 Bft)
23.10.2014 18:45 2,3 C 97 % 1024,7 hPa 0,0 l/m 2,3 km/h (1 Bft) S 180 1,9 C 2,1 C 5,1 km/h (1 Bft)
23.10.2014 18:50 2,4 C 97 % 1024,7 hPa 0,0 l/m 2,3 km/h (1 Bft) S 180 2,0 C 2,1 C 5,1 km/h (1 Bft)
23.10.2014 18:55 2,3 C 97 % 1024,7 hPa 0,0 l/m 1,3 km/h (1 Bft) S-SW 202 1,9 C 2,1 C 0,0 km/h (0 Bft)
23.10.2014 19:00 2,3 C 97 % 1024,7 hPa 0,0 l/m 0,5 km/h (0 Bft) W-SW 247 1,9 C 2,1 C 1,6 km/h (1 Bft)
23.10.2014 19:05 2,4 C 97 % 1024,7 hPa 0,0 l/m 0,5 km/h (0 Bft) W 270 2,0 C 2,0 C 2,9 km/h (1 Bft)
23.10.2014 19:10 2,3 C 97 % 1024,7 hPa 0,0 l/m 1,1 km/h (1 Bft) O-NO 67 1,9 C 2,0 C 0,0 km/h (0 Bft)
23.10.2014 19:15 2,4 C 97 % 1024,7 hPa 0,0 l/m 2,1 km/h (1 Bft) S 180 2,0 C 2,0 C 5,6 km/h (1 Bft)
23.10.2014 19:20 2,4 C 97 % 1024,4 hPa 0,0 l/m 2,3 km/h (1 Bft) S-SW 202 2,0 C 2,1 C 3,1 km/h (1 Bft)
23.10.2014 19:25 2,4 C 97 % 1024,4 hPa 0,0 l/m 2,7 km/h (1 Bft) S 180 2,0 C 2,1 C 5,8 km/h (2 Bft)
23.10.2014 19:30 2,4 C 97 % 1024,4 hPa 0,0 l/m 3,7 km/h (1 Bft) S 180 2,0 C 1,4 C 5,6 km/h (1 Bft)
23.10.2014 19:35 2,4 C 97 % 1024,4 hPa 0,0 l/m 5,3 km/h (1 Bft) SW 225 2,0 C 0,7 C 5,3 km/h (1 Bft)
23.10.2014 19:40 2,4 C 97 % 1024,4 hPa 0,0 l/m 4,8 km/h (1 Bft) S 180 2,0 C 0,9 C 2,4 km/h (1 Bft)
23.10.2014 19:45 2,4 C 97 % 1024,4 hPa 0,0 l/m 3,5 km/h (1 Bft) S 180 2,0 C 1,6 C 3,9 km/h (1 Bft)
23.10.2014 19:50 2,4 C 97 % 1024,4 hPa 0,0 l/m 3,7 km/h (1 Bft) S-SO 157 2,0 C 1,6 C 6,4 km/h (2 Bft)
23.10.2014 19:55 2,5 C 97 % 1024,4 hPa 0,0 l/m 4,3 km/h (1 Bft) S-SO 157 2,1 C 1,2 C 2,6 km/h (1 Bft)
23.10.2014 20:00 2,4 C 97 % 1024,6 hPa 0,0 l/m 3,7 km/h (1 Bft) SO 135 2,0 C 1,6 C 3,9 km/h (1 Bft)
23.10.2014 20:05 2,4 C 97 % 1024,6 hPa 0,0 l/m 1,9 km/h (1 Bft) W-SW 247 2,0 C 2,2 C 3,5 km/h (1 Bft)
23.10.2014 20:10 2,4 C 97 % 1024,6 hPa 0,0 l/m 1,4 km/h (1 Bft) W 270 2,0 C 2,2 C 2,7 km/h (1 Bft)
23.10.2014 20:15 2,5 C 97 % 1024,6 hPa 0,0 l/m 1,6 km/h (1 Bft) SW 225 2,1 C 2,2 C 2,3 km/h (1 Bft)
23.10.2014 20:20 2,5 C 97 % 1024,6 hPa 0,0 l/m 2,4 km/h (1 Bft) S 180 2,1 C 2,2 C 4,8 km/h (1 Bft)
23.10.2014 20:23 2,5 C 97 % 1024,6 hPa 0,0 l/m 4,0 km/h (1 Bft) SW 225 2,1 C 1,4 C 1,9 km/h (1 Bft)
23.10.2014 20:25 2,5 C 97 % 1024,6 hPa 0,0 l/m 4,0 km/h (1 Bft) SW 225 2,1 C 1,4 C 1,9 km/h (1 Bft)
23.10.2014 20:30 2,4 C 97 % 1024,6 hPa 0,0 l/m 3,4 km/h (1 Bft) W 270 2,0 C 1,8 C 2,3 km/h (1 Bft)
23.10.2014 20:35 2,5 C 97 % 1024,6 hPa 0,0 l/m 1,4 km/h (1 Bft) W-SW 247 2,1 C 2,2 C 1,8 km/h (1 Bft)
23.10.2014 20:40 2,5 C 97 % 1024,4 hPa 0,0 l/m 1,8 km/h (1 Bft) W 270 2,1 C 2,2 C 1,9 km/h (1 Bft)
23.10.2014 20:45 2,5 C 97 % 1024,4 hPa 0,0 l/m 1,9 km/h (1 Bft) S 180 2,1 C 2,3 C 2,3 km/h (1 Bft)
23.10.2014 20:50 2,5 C 97 % 1024,4 hPa 0,0 l/m 1,9 km/h (1 Bft) SW 225 2,1 C 2,3 C 2,9 km/h (1 Bft)
23.10.2014 20:55 2,5 C 97 % 1024,4 hPa 0,0 l/m 1,8 km/h (1 Bft) SW 225 2,1 C 2,3 C 3,7 km/h (1 Bft)
23.10.2014 21:00 2,4 C 97 % 1024,4 hPa 0,0 l/m 1,4 km/h (1 Bft) NO 45 2,0 C 2,3 C 0,0 km/h (0 Bft)
23.10.2014 21:05 2,3 C 97 % 1024,4 hPa 0,0 l/m 1,0 km/h (0 Bft) SW 225 1,9 C 2,3 C 1,8 km/h (1 Bft)
23.10.2014 21:10 2,4 C 97 % 1024,4 hPa 0,0 l/m 0,6 km/h (0 Bft) W-SW 247 2,0 C 2,3 C 3,1 km/h (1 Bft)
23.10.2014 21:15 2,5 C 97 % 1024,4 hPa 0,0 l/m 1,8 km/h (1 Bft) NW 315 2,1 C 2,3 C 0,0 km/h (0 Bft)
23.10.2014 21:20 2,5 C 97 % 1024,6 hPa 0,0 l/m 1,9 km/h (1 Bft) S-SO 157 2,1 C 2,3 C 2,1 km/h (1 Bft)
23.10.2014 21:25 2,4 C 97 % 1024,6 hPa 0,0 l/m 0,8 km/h (0 Bft) S-SO 157 2,0 C 2,3 C 0,0 km/h (0 Bft)
23.10.2014 21:30 2,4 C 97 % 1024,6 hPa 0,0 l/m 0,6 km/h (0 Bft) W 270 2,0 C 2,3 C 2,4 km/h (1 Bft)
23.10.2014 21:35 2,4 C 97 % 1024,6 hPa 0,0 l/m 1,3 km/h (1 Bft) SO 135 2,0 C 2,3 C 0,0 km/h (0 Bft)
23.10.2014 21:40 2,4 C 97 % 1024,6 hPa 0,0 l/m 1,4 km/h (1 Bft) W-SW 247 2,0 C 2,3 C 3,4 km/h (1 Bft)
23.10.2014 21:45 2,5 C 97 % 1024,6 hPa 0,0 l/m 2,1 km/h (1 Bft) S 180 2,1 C 2,3 C 4,8 km/h (1 Bft)
23.10.2014 21:50 2,4 C 97 % 1024,6 hPa 0,0 l/m 2,7 km/h (1 Bft) SO 135 2,0 C 2,2 C 0,0 km/h (0 Bft)
23.10.2014 21:55 2,4 C 97 % 1024,6 hPa 0,0 l/m 1,0 km/h (0 Bft) W-NW 292 2,0 C 2,3 C 0,0 km/h (0 Bft)
23.10.2014 22:00 2,4 C 97 % 1024,8 hPa 0,0 l/m 0,3 km/h (0 Bft) S-SW 202 2,0 C 2,3 C 0,0 km/h (0 Bft)
23.10.2014 22:05 2,4 C 97 % 1024,8 hPa 0,0 l/m 0,8 km/h (0 Bft) O-SO 112 2,0 C 2,2 C 2,4 km/h (1 Bft)
23.10.2014 22:10 2,5 C 97 % 1024,8 hPa 0,0 l/m 1,1 km/h (1 Bft) W 270 2,1 C 2,3 C 3,5 km/h (1 Bft)
23.10.2014 22:15 2,5 C 97 % 1024,8 hPa 0,0 l/m 1,8 km/h (1 Bft) W-SW 247 2,1 C 2,3 C 2,3 km/h (1 Bft)
23.10.2014 22:20 2,5 C 97 % 1024,7 hPa 0,0 l/m 1,4 km/h (1 Bft) S 180 2,1 C 2,3 C 1,8 km/h (1 Bft)
23.10.2014 22:25 2,4 C 97 % 1024,7 hPa 0,0 l/m 0,3 km/h (0 Bft) SO 135 2,0 C 2,3 C 0,0 km/h (0 Bft)
23.10.2014 22:30 2,4 C 97 % 1024,7 hPa 0,0 l/m 0,3 km/h (0 Bft) W-SW 247 2,0 C 2,3 C 0,0 km/h (0 Bft)
23.10.2014 22:35 2,4 C 97 % 1024,7 hPa 0,0 l/m 0,5 km/h (0 Bft) S-SW 202 2,0 C 2,3 C 1,8 km/h (1 Bft)
23.10.2014 22:40 2,4 C 97 % 1024,6 hPa 0,0 l/m 0,5 km/h (0 Bft) S 180 2,0 C 2,3 C 0,0 km/h (0 Bft)
23.10.2014 22:45 2,5 C 97 % 1024,6 hPa 0,0 l/m 0,5 km/h (0 Bft) S 180 2,1 C 2,3 C 0,0 km/h (0 Bft)
23.10.2014 22:50 2,4 C 97 % 1024,6 hPa 0,0 l/m 0,5 km/h (0 Bft) S 180 2,0 C 2,3 C 2,1 km/h (1 Bft)
23.10.2014 22:55 2,4 C 97 % 1024,6 hPa 0,0 l/m 0,3 km/h (0 Bft) NW 315 2,0 C 2,3 C 0,0 km/h (0 Bft)
23.10.2014 23:00 2,4 C 97 % 1024,6 hPa 0,0 l/m 0,3 km/h (0 Bft) NO 45 2,0 C 2,3 C 0,0 km/h (0 Bft)
23.10.2014 23:05 2,5 C 97 % 1024,6 hPa 0,0 l/m 0,2 km/h (0 Bft) S 180 2,1 C 2,3 C 0,0 km/h (0 Bft)
23.10.2014 23:10 2,4 C 97 % 1024,6 hPa 0,0 l/m 0,3 km/h (0 Bft) W-SW 247 2,0 C 2,3 C 0,0 km/h (0 Bft)
23.10.2014 23:15 2,4 C 97 % 1024,6 hPa 0,0 l/m 0,3 km/h (0 Bft) W 270 2,0 C 2,3 C 1,6 km/h (1 Bft)
23.10.2014 23:18 2,5 C 98 % 1024,6 hPa 0,0 l/m 0,2 km/h (0 Bft) S 180 2,2 C 2,3 C 0,0 km/h (0 Bft)
23.10.2014 23:20 2,5 C 98 % 1024,6 hPa 0,0 l/m 0,2 km/h (0 Bft) S 180 2,2 C 2,3 C 0,0 km/h (0 Bft)
23.10.2014 23:25 2,5 C 98 % 1024,6 hPa 0,0 l/m 0,0 km/h (0 Bft) NW 315 2,2 C 2,3 C 0,0 km/h (0 Bft)
23.10.2014 23:30 2,5 C 98 % 1024,6 hPa 0,0 l/m 0,0 km/h (0 Bft) NW 315 2,2 C 2,3 C 0,0 km/h (0 Bft)
23.10.2014 23:35 2,5 C 98 % 1024,6 hPa 0,0 l/m 0,0 km/h (0 Bft) NW 315 2,2 C 2,3 C 0,0 km/h (0 Bft)
23.10.2014 23:40 2,6 C 98 % 1024,5 hPa 0,0 l/m 0,0 km/h (0 Bft) NW 315 2,3 C 2,3 C 0,0 km/h (0 Bft)
23.10.2014 23:45 2,6 C 98 % 1024,5 hPa 0,0 l/m 0,0 km/h (0 Bft) NW 315 2,3 C 2,3 C 0,0 km/h (0 Bft)
23.10.2014 23:50 2,5 C 98 % 1024,5 hPa 0,0 l/m 0,0 km/h (0 Bft) NW 315 2,2 C 2,3 C 0,0 km/h (0 Bft)
23.10.2014 23:55 2,6 C 98 % 1024,5 hPa 0,0 l/m 0,0 km/h (0 Bft) NW 315 2,3 C 2,3 C 0,0 km/h (0 Bft)
_ Min-Zeit 14:00 14:00 01:35 - 23:55 - - 14:00 08:40 23:55
Minimum _ 0,0 C 0 % 1017,9 hPa - 0,0 km/h (0 Bft) - - -60,0 C -12,8 C 0,0 km/h (0 Bft)
_ Max-Zeit 23:55 23:55 17:35 23:55 08:40 - - 23:55 00:50 09:05
Maximum _ 2,6 C 98 % 1024,9 hPa 0,0 l/m 16,9 km/h
SW (3 Bft)
- - 2,3 C 22,8 C 34,6 km/h
W-NW (5 Bft)
Durchschnitt _ 1,7 C 96 % 1022,2 hPa #0,0 l/m 5,8 km/h (2 Bft) W-SW - 0,4 C -2,2 C 7,7 km/h (2 Bft)